Time;durP1;ratioP1;P1;durP2;ratioP2;P2;SDS_P1;SDS_P2;PMS_P1;PMS_P2;Temp;Humidity;BMP_temperature;BMP_pressure;BME280_temperature;BME280_humidity;BME280_pressure;Samples;Min_cycle;Max_cycle;Signal;HPM_P1;HPM_P2
2023/05/17 00:00:05;;;;;;;;;;;;;;;25.52;36.17;100477.69;5079089;28;1107;-35
2023/05/17 00:02:31;;;;;;;;;;;;;;;25.59;35.98;100469.72;5078653;28;1117;-36
2023/05/17 00:04:56;;;;;;;;;;;;;;;25.56;36.30;100472.75;5078389;28;1926;-35
2023/05/17 00:07:22;;;;;;;;;;;;;;;25.59;36.14;100469.72;5078958;28;1020;-34
2023/05/17 00:09:47;;;;;;;;;;;;;;;25.60;35.84;100468.72;5075294;28;1265;-36
2023/05/17 00:12:13;;;;;;;;;;;;;;;25.44;36.26;100470.50;5067988;28;1050;-35
2023/05/17 00:14:38;;;;;;;;;;;;;;;25.58;35.94;100470.75;5071993;28;1050;-34
2023/05/17 00:17:04;;;;;;;;;;;;;;;25.55;36.10;100476.50;5068862;28;1441;-36
2023/05/17 00:19:30;;;;;;;;;;;;;;;25.52;36.21;100471.47;5043513;28;1182;-34
2023/05/17 00:21:55;;;;;;;;;;;;;;;25.39;36.56;100475.56;5069299;28;830;-36
2023/05/17 00:24:21;;;;;;;;;;;;;;;25.44;36.62;100483.94;5065231;28;1910;-33
2023/05/17 00:26:46;;;;;;;;;;;;;;;25.48;36.20;100483.59;5078573;28;1111;-32
2023/05/17 00:29:12;;;;;;;;;;;;;;;25.48;36.26;100492.53;5078012;28;1163;-35
2023/05/17 00:31:37;;;;;;;;;;;;;;;25.49;36.16;100494.19;5068142;28;1126;-36
2023/05/17 00:34:03;;;;;;;;;;;;;;;25.55;36.24;100498.88;5068693;28;1199;-36
2023/05/17 00:36:28;;;;;;;;;;;;;;;25.47;36.23;100480.09;5068731;28;1043;-35
2023/05/17 00:38:54;;;;;;;;;;;;;;;25.45;36.30;100476.72;5043255;28;1105;-36
2023/05/17 00:41:19;;;;;;;;;;;;;;;25.36;36.74;100473.22;5058540;28;1063;-35
2023/05/17 00:43:45;;;;;;;;;;;;;;;25.48;36.52;100473.66;5039885;28;1984;-35
2023/05/17 00:46:11;;;;;;;;;;;;;;;25.42;36.23;100477.91;5054958;28;1190;-36
2023/05/17 00:48:36;;;;;;;;;;;;;;;25.43;36.32;100471.50;5078201;28;1078;-34
2023/05/17 00:51:02;;;;;;;;;;;;;;;25.51;36.43;100478.69;5060225;28;1314;-34
2023/05/17 00:53:28;;;;;;;;;;;;;;;25.50;36.39;100471.63;5059360;28;1226;-34
2023/05/17 00:55:54;;;;;;;;;;;;;;;25.50;36.32;100460.88;5050113;28;1167;-33
2023/05/17 00:58:20;;;;;;;;;;;;;;;25.50;36.42;100465.41;5073860;28;1075;-34
2023/05/17 01:00:46;;;;;;;;;;;;;;;25.41;36.46;100453.84;5059968;28;1214;-35
2023/05/17 01:03:11;;;;;;;;;;;;;;;25.41;36.61;100445.75;5077766;28;1129;-35
2023/05/17 01:05:37;;;;;;;;;;;;;;;25.37;36.53;100436.38;5050295;28;1901;-35
2023/05/17 01:08:03;;;;;;;;;;;;;;;25.27;37.00;100434.78;5042772;28;1151;-36
2023/05/17 01:10:37;;;;;;;;;;;;;;;25.34;36.69;100431.38;5067866;28;891;-35
2023/05/17 01:13:05;;;;;;;;;;;;;;;25.29;36.93;100419.25;5057699;28;1143;-35
2023/05/17 01:15:32;;;;;;;;;;;;;;;25.40;36.90;100414.47;5050965;28;1127;-34
2023/05/17 01:18:03;;;;;;;;;;;;;;;25.29;37.18;100400.41;5055260;28;1111;-33
2023/05/17 01:20:36;;;;;;;;;;;;;;;25.36;36.96;100394.34;5057641;28;1135;-37
2023/05/17 01:23:02;;;;;;;;;;;;;;;25.30;36.63;100385.97;5042432;28;1143;-35
2023/05/17 01:25:40;;;;;;;;;;;;;;;25.45;36.63;100379.78;5058802;28;1964;-35
2023/05/17 01:28:06;;;;;;;;;;;;;;;25.56;36.67;100360.50;5051165;28;1055;-32
2023/05/17 01:30:32;;;;;;;;;;;;;;;25.51;36.46;100365.59;5054327;28;1218;-33
2023/05/17 01:33:00;;;;;;;;;;;;;;;25.39;36.99;100373.25;5076846;28;1133;-35
2023/05/17 01:35:26;;;;;;;;;;;;;;;25.50;36.82;100352.31;5075292;28;1158;-36
2023/05/17 01:37:52;;;;;;;;;;;;;;;25.36;37.08;100364.72;5047914;28;1219;-35
2023/05/17 01:40:19;;;;;;;;;;;;;;;25.50;36.46;100352.31;5063589;28;1201;-36
2023/05/17 01:42:44;;;;;;;;;;;;;;;25.36;36.79;100362.03;5068450;28;1091;-35
2023/05/17 01:45:26;;;;;;;;;;;;;;;25.42;36.57;100351.34;5036121;28;1967;-35
2023/05/17 01:47:57;;;;;;;;;;;;;;;25.22;37.05;100347.47;5019020;28;1356;-36
2023/05/17 01:50:23;;;;;;;;;;;;;;;25.36;36.72;100332.41;5036516;28;1148;-36
2023/05/17 01:52:52;;;;;;;;;;;;;;;25.34;36.56;100313.72;5025544;28;1245;-36
2023/05/17 01:55:36;;;;;;;;;;;;;;;25.38;36.67;100306.97;5033667;28;1068;-35
2023/05/17 01:58:08;;;;;;;;;;;;;;;25.52;36.09;100293.72;5032085;28;1218;-36
2023/05/17 02:00:34;;;;;;;;;;;;;;;25.61;36.14;100286.41;5035574;28;1451;-35
2023/05/17 02:02:59;;;;;;;;;;;;;;;25.39;36.63;100276.31;5023541;28;1044;-36
2023/05/17 02:05:25;;;;;;;;;;;;;;;25.42;36.48;100275.94;5027450;28;1977;-36
2023/05/17 02:07:50;;;;;;;;;;;;;;;25.37;36.87;100277.53;5030662;28;1063;-35
2023/05/17 02:10:16;;;;;;;;;;;;;;;25.38;36.85;100284.56;5015673;28;1132;-35
2023/05/17 02:12:41;;;;;;;;;;;;;;;25.39;36.97;100291.66;5031423;28;1023;-34
2023/05/17 02:15:10;;;;;;;;;;;;;;;25.35;36.92;100322.63;5035096;28;1326;-34
2023/05/17 02:17:39;;;;;;;;;;;;;;;25.31;37.14;100312.25;5034174;28;1118;-36
2023/05/17 02:20:05;;;;;;;;;;;;;;;25.46;36.56;100321.38;5025679;28;1056;-35
2023/05/17 02:22:31;;;;;;;;;;;;;;;25.37;36.88;100317.91;5032673;28;1079;-35
2023/05/17 02:24:56;;;;;;;;;;;;;;;25.28;36.87;100309.91;5024027;28;1964;-35
2023/05/17 02:27:22;;;;;;;;;;;;;;;25.29;36.62;100314.25;5035845;28;1078;-34
2023/05/17 02:29:47;;;;;;;;;;;;;;;25.24;37.00;100310.47;5028096;28;1095;-34
2023/05/17 02:32:13;;;;;;;;;;;;;;;25.23;36.90;100316.84;5031419;28;1147;-34
2023/05/17 02:34:38;;;;;;;;;;;;;;;25.30;36.68;100321.34;5026165;28;1029;-35
2023/05/17 02:37:04;;;;;;;;;;;;;;;25.42;36.86;100323.59;5029696;28;1116;-33
2023/05/17 02:39:31;;;;;;;;;;;;;;;25.36;36.80;100316.25;5027920;28;1119;-36
2023/05/17 02:41:57;;;;;;;;;;;;;;;25.39;36.92;100323.97;5030185;28;1167;-34
2023/05/17 02:44:22;;;;;;;;;;;;;;;25.43;36.62;100339.56;5034620;28;1902;-35
2023/05/17 02:46:48;;;;;;;;;;;;;;;25.40;36.55;100356.09;5036374;28;1107;-34
2023/05/17 02:49:13;;;;;;;;;;;;;;;25.38;36.57;100368.88;5035803;28;1070;-33
2023/05/17 02:51:39;;;;;;;;;;;;;;;25.44;36.67;100370.03;5034546;28;1869;-35
2023/05/17 02:54:05;;;;;;;;;;;;;;;25.51;36.57;100370.97;5035164;28;1523;-35
2023/05/17 02:56:30;;;;;;;;;;;;;;;25.67;35.97;100366.50;5023112;28;1122;-35
2023/05/17 02:58:56;;;;;;;;;;;;;;;25.60;36.07;100369.06;5036022;28;855;-35
2023/05/17 03:01:22;;;;;;;;;;;;;;;25.47;36.40;100355.34;5021354;28;1055;-36
2023/05/17 03:03:48;;;;;;;;;;;;;;;25.56;36.24;100362.34;5017585;28;1910;-34
2023/05/17 03:06:14;;;;;;;;;;;;;;;25.75;36.33;100346.72;5034908;28;1211;-37
2023/05/17 03:08:40;;;;;;;;;;;;;;;25.87;35.54;100360.59;5024245;28;1633;-35
2023/05/17 03:11:06;;;;;;;;;;;;;;;26.02;34.84;100401.03;5031913;28;1476;-36
2023/05/17 03:13:32;;;;;;;;;;;;;;;25.98;34.97;100415.88;5035771;28;1050;-34
2023/05/17 03:15:58;;;;;;;;;;;;;;;25.92;35.18;100407.50;5021299;28;1290;-36
2023/05/17 03:18:24;;;;;;;;;;;;;;;25.97;35.21;100403.44;5033829;28;1184;-37
2023/05/17 03:20:50;;;;;;;;;;;;;;;25.97;35.32;100416.91;5034750;28;1340;-35
2023/05/17 03:23:16;;;;;;;;;;;;;;;26.04;34.64;100407.88;5034192;28;1262;-36
2023/05/17 03:25:50;;;;;;;;;;;;;;;26.07;35.16;100390.53;5034175;28;1971;-36
2023/05/17 03:28:16;;;;;;;;;;;;;;;26.04;35.07;100390.91;5036611;28;1227;-37
2023/05/17 03:30:42;;;;;;;;;;;;;;;26.08;35.07;100397.59;5018386;28;1326;-37
2023/05/17 03:33:08;;;;;;;;;;;;;;;26.06;34.90;100398.81;5017861;28;1561;-37
2023/05/17 03:35:34;;;;;;;;;;;;;;;26.09;34.79;100387.66;5022123;28;1377;-38
2023/05/17 03:37:59;;;;;;;;;;;;;;;26.12;34.64;100373.78;5019369;28;1305;-38
2023/05/17 03:40:25;;;;;;;;;;;;;;;25.74;33.99;100375.50;5018348;28;1108;-38
2023/05/17 03:42:51;;;;;;;;;;;;;;;25.20;34.11;100353.03;5026413;28;1047;-39
2023/05/17 03:45:17;;;;;;;;;;;;;;;25.02;34.24;100356.03;5037857;28;1910;-39
2023/05/17 03:47:44;;;;;;;;;;;;;;;24.66;35.02;100352.84;5037927;28;1152;-39
2023/05/17 03:50:10;;;;;;;;;;;;;;;24.54;34.43;100357.75;5008043;28;1166;-37
2023/05/17 03:52:36;;;;;;;;;;;;;;;24.66;35.85;100352.00;5017416;28;1318;-37
2023/05/17 03:55:02;;;;;;;;;;;;;;;25.21;35.22;100348.50;5020474;28;1179;-39
2023/05/17 03:57:29;;;;;;;;;;;;;;;25.14;34.39;100359.97;5037794;28;1362;-38
2023/05/17 03:59:55;;;;;;;;;;;;;;;25.02;33.76;100356.88;5022229;28;902;-36
2023/05/17 04:02:20;;;;;;;;;;;;;;;25.13;33.68;100361.00;5027295;28;1250;-37
2023/05/17 04:04:50;;;;;;;;;;;;;;;24.86;34.54;100373.09;5023905;28;1976;-37
2023/05/17 04:07:16;;;;;;;;;;;;;;;23.94;34.97;100376.09;5037455;28;1279;-39
2023/05/17 04:09:42;;;;;;;;;;;;;;;23.82;34.34;100380.97;5020838;28;1147;-34
2023/05/17 04:12:09;;;;;;;;;;;;;;;24.07;34.08;100399.72;5028912;28;876;-39
2023/05/17 04:14:36;;;;;;;;;;;;;;;24.26;33.49;100409.28;5020750;28;1540;-37
2023/05/17 04:17:02;;;;;;;;;;;;;;;24.57;33.02;100415.75;5028307;28;1147;-40
2023/05/17 04:19:28;;;;;;;;;;;;;;;24.65;32.76;100414.88;5024005;28;1095;-35
2023/05/17 04:21:54;;;;;;;;;;;;;;;24.64;32.98;100438.22;5028761;28;1050;-35
2023/05/17 04:24:22;;;;;;;;;;;;;;;24.53;33.12;100441.31;5033990;28;1907;-38
2023/05/17 04:26:47;;;;;;;;;;;;;;;24.43;33.24;100441.50;5028822;28;1055;-39
2023/05/17 04:29:14;;;;;;;;;;;;;;;24.48;33.28;100447.19;5017681;28;1250;-38
2023/05/17 04:31:39;;;;;;;;;;;;;;;24.61;33.12;100454.72;5028906;28;1111;-36
2023/05/17 04:34:05;;;;;;;;;;;;;;;24.64;32.95;100440.91;5037071;28;1206;-38
2023/05/17 04:36:31;;;;;;;;;;;;;;;24.60;32.96;100436.06;5026820;28;1225;-37
2023/05/17 04:38:56;;;;;;;;;;;;;;;24.81;33.06;100430.94;5033630;28;1099;-38
2023/05/17 04:41:25;;;;;;;;;;;;;;;24.69;33.04;100430.47;5026810;28;1330;-38
2023/05/17 04:43:51;;;;;;;;;;;;;;;24.76;33.11;100435.16;5017100;28;1910;-38
2023/05/17 04:46:23;;;;;;;;;;;;;;;25.01;32.75;100435.06;5028265;28;1417;-38
2023/05/17 04:48:48;;;;;;;;;;;;;;;25.17;32.90;100432.28;5025007;28;1117;-38
2023/05/17 04:51:14;;;;;;;;;;;;;;;25.32;32.57;100439.63;5036892;28;1127;-38
2023/05/17 04:53:40;;;;;;;;;;;;;;;25.47;32.28;100442.38;5036951;28;1505;-38
2023/05/17 04:56:09;;;;;;;;;;;;;;;25.34;32.81;100450.22;5036931;28;1281;-38
2023/05/17 04:58:35;;;;;;;;;;;;;;;25.01;33.36;100459.28;5036149;28;1222;-39
2023/05/17 05:01:02;;;;;;;;;;;;;;;24.83;33.36;100477.34;5036783;28;1300;-38
2023/05/17 05:03:28;;;;;;;;;;;;;;;24.94;34.58;100484.22;5023002;28;1250;-40
2023/05/17 05:05:54;;;;;;;;;;;;;;;24.99;35.33;100480.19;5036097;28;1902;-39
2023/05/17 05:08:20;;;;;;;;;;;;;;;25.27;34.42;100480.53;5031625;28;1280;-38
2023/05/17 05:10:45;;;;;;;;;;;;;;;25.90;34.33;100474.22;5028207;28;1151;-35
2023/05/17 05:13:13;;;;;;;;;;;;;;;25.66;33.93;100478.78;5018260;28;1213;-36
2023/05/17 05:15:39;;;;;;;;;;;;;;;25.48;34.31;100470.13;5027836;28;1131;-38
2023/05/17 05:18:05;;;;;;;;;;;;;;;25.37;33.63;100463.31;5032688;28;1083;-35
2023/05/17 05:20:31;;;;;;;;;;;;;;;25.47;33.54;100468.47;5028172;28;1247;-37
2023/05/17 05:22:57;;;;;;;;;;;;;;;25.41;33.49;100472.69;5032452;28;1229;-36
2023/05/17 05:25:23;;;;;;;;;;;;;;;25.61;33.05;100466.88;5028178;28;1967;-35
2023/05/17 05:27:49;;;;;;;;;;;;;;;25.37;33.45;100469.53;5036276;28;1219;-36
2023/05/17 05:30:20;;;;;;;;;;;;;;;25.23;33.86;100465.75;5035855;28;1481;-34
2023/05/17 05:32:48;;;;;;;;;;;;;;;24.94;34.21;100453.81;5036119;28;1294;-34
2023/05/17 05:35:14;;;;;;;;;;;;;;;24.95;34.63;100455.47;5028055;28;1112;-36
2023/05/17 05:37:40;;;;;;;;;;;;;;;24.61;34.87;100453.91;5022548;28;1095;-36
2023/05/17 05:40:07;;;;;;;;;;;;;;;24.19;35.17;100454.81;5035969;28;1535;-35
2023/05/17 05:42:33;;;;;;;;;;;;;;;24.17;34.89;100459.50;5017278;28;1043;-36
2023/05/17 05:44:59;;;;;;;;;;;;;;;24.14;34.96;100462.50;5029234;28;1919;-37
2023/05/17 05:47:25;;;;;;;;;;;;;;;23.79;35.30;100461.88;5034954;28;1133;-37
2023/05/17 05:49:51;;;;;;;;;;;;;;;24.01;35.26;100451.44;5021513;28;1229;-34
2023/05/17 05:52:17;;;;;;;;;;;;;;;24.19;34.69;100454.81;5015701;28;1384;-36
2023/05/17 05:54:43;;;;;;;;;;;;;;;24.54;33.58;100461.81;5016034;28;1313;-36
2023/05/17 05:57:08;;;;;;;;;;;;;;;24.73;34.29;100457.03;5016163;28;1400;-36
2023/05/17 05:59:34;;;;;;;;;;;;;;;24.45;33.82;100459.16;5023502;28;1241;-35
2023/05/17 06:01:59;;;;;;;;;;;;;;;24.82;33.33;100461.38;5021495;28;2061;-36
2023/05/17 06:04:26;;;;;;;;;;;;;;;24.46;33.85;100465.34;5016316;28;1987;-36
2023/05/17 06:06:53;;;;;;;;;;;;;;;24.16;34.15;100459.66;5019405;28;1221;-35
2023/05/17 06:09:18;;;;;;;;;;;;;;;24.41;33.84;100463.19;5036193;28;1278;-36
2023/05/17 06:11:44;;;;;;;;;;;;;;;24.23;33.91;100474.13;5035303;28;1134;-34
2023/05/17 06:14:10;;;;;;;;;;;;;;;24.25;33.95;100480.19;5035635;28;1355;-36
2023/05/17 06:16:35;;;;;;;;;;;;;;;24.31;33.79;100476.81;5035046;28;1238;-37
2023/05/17 06:19:01;;;;;;;;;;;;;;;24.56;33.74;100478.59;5035901;28;1356;-36
2023/05/17 06:21:26;;;;;;;;;;;;;;;24.61;33.67;100484.31;5035363;28;1253;-35
2023/05/17 06:23:52;;;;;;;;;;;;;;;24.56;33.33;100484.81;5035234;28;1292;-36
2023/05/17 06:26:17;;;;;;;;;;;;;;;24.37;33.82;100490.59;5031641;28;1902;-32
2023/05/17 06:28:43;;;;;;;;;;;;;;;23.65;34.79;100490.22;5027251;28;1371;-32
2023/05/17 06:31:08;;;;;;;;;;;;;;;24.19;33.59;100486.25;5016004;28;1065;-36
2023/05/17 06:33:34;;;;;;;;;;;;;;;23.98;33.61;100490.25;5026149;28;1123;-36
2023/05/17 06:35:59;;;;;;;;;;;;;;;23.50;34.31;100485.50;5027676;28;867;-34
2023/05/17 06:38:25;;;;;;;;;;;;;;;23.66;33.86;100492.75;5026503;28;1210;-35
2023/05/17 06:40:51;;;;;;;;;;;;;;;23.76;33.66;100481.00;5027044;28;1218;-34
2023/05/17 06:43:17;;;;;;;;;;;;;;;23.53;34.05;100477.13;5016053;28;1147;-36
2023/05/17 06:45:42;;;;;;;;;;;;;;;24.00;32.98;100482.88;5077173;28;1963;-33
2023/05/17 06:48:08;;;;;;;;;;;;;;;23.97;32.68;100480.53;5067527;28;1066;-35
2023/05/17 06:50:33;;;;;;;;;;;;;;;23.87;31.82;100486.06;5059203;28;1020;-35
2023/05/17 06:52:59;;;;;;;;;;;;;;;24.47;30.98;100502.00;5075910;28;1179;-36
2023/05/17 06:55:25;;;;;;;;;;;;;;;24.26;30.49;100505.19;5057252;28;1206;-36
2023/05/17 06:57:50;;;;;;;;;;;;;;;23.95;30.67;100498.66;5079631;28;1042;-36
2023/05/17 07:00:16;;;;;;;;;;;;;;;24.00;30.68;100495.44;5074901;28;902;-36
2023/05/17 07:02:41;;;;;;;;;;;;;;;24.20;31.07;100495.97;5077840;28;1385;-35
2023/05/17 07:05:07;;;;;;;;;;;;;;;24.08;30.32;100496.28;5077572;28;1901;-37
2023/05/17 07:07:32;;;;;;;;;;;;;;;24.43;29.51;100493.44;5075873;28;976;-37
2023/05/17 07:09:58;;;;;;;;;;;;;;;24.41;28.66;100495.44;5064443;28;1403;-35
2023/05/17 07:12:23;;;;;;;;;;;;;;;23.56;29.47;100500.97;5072154;28;992;-33
2023/05/17 07:14:49;;;;;;;;;;;;;;;24.21;29.43;100490.44;5079438;28;1052;-34
2023/05/17 07:17:15;;;;;;;;;;;;;;;24.17;29.64;100493.63;5070308;28;1353;-35
2023/05/17 07:19:40;;;;;;;;;;;;;;;24.56;28.77;100492.88;5065812;28;1387;-36
2023/05/17 07:22:06;;;;;;;;;;;;;;;24.45;29.46;100502.16;5059651;28;1191;-39
2023/05/17 07:24:31;;;;;;;;;;;;;;;25.00;27.73;100498.84;5077573;28;1910;-36
2023/05/17 07:26:57;;;;;;;;;;;;;;;24.26;29.10;100503.34;5064087;28;1262;-36
2023/05/17 07:29:23;;;;;;;;;;;;;;;24.58;29.98;100496.25;5079381;28;1046;-36
2023/05/17 07:31:48;;;;;;;;;;;;;;;24.68;30.08;100495.22;5079082;28;1151;-35
2023/05/17 07:34:14;;;;;;;;;;;;;;;25.03;29.99;100492.25;5079486;28;1297;-36
2023/05/17 07:36:39;;;;;;;;;;;;;;;24.87;29.01;100503.91;5060474;28;1340;-35
2023/05/17 07:39:05;;;;;;;;;;;;;;;24.86;29.03;100503.06;5076115;28;1234;-40
2023/05/17 07:41:31;;;;;;;;;;;;;;;24.79;29.13;100494.84;5059842;28;1330;-36
2023/05/17 07:43:57;;;;;;;;;;;;;;;25.06;29.52;100495.44;5076342;28;1250;-36
2023/05/17 07:46:22;;;;;;;;;;;;;;;25.18;30.02;100493.19;5078756;28;1258;-36
2023/05/17 07:48:47;;;;;;;;;;;;;;;25.58;30.25;100488.75;5078297;28;1105;-36
2023/05/17 07:51:13;;;;;;;;;;;;;;;25.47;30.80;100490.00;5065758;28;1509;-36
2023/05/17 07:53:39;;;;;;;;;;;;;;;25.30;29.89;100480.19;5065755;28;1115;-37
2023/05/17 07:56:04;;;;;;;;;;;;;;;25.21;29.48;100472.34;5068663;28;1150;-36
2023/05/17 07:58:30;;;;;;;;;;;;;;;25.10;30.10;100466.31;5059372;28;1067;-37
2023/05/17 08:00:55;;;;;;;;;;;;;;;25.09;30.44;100461.94;5067045;28;891;-37
2023/05/17 08:03:21;;;;;;;;;;;;;;;25.11;30.44;100454.53;5078245;28;1392;-35
2023/05/17 08:05:46;;;;;;;;;;;;;;;25.34;30.21;100450.22;5078299;28;2273;-35
2023/05/17 08:08:12;;;;;;;;;;;;;;;25.07;31.50;100451.34;5078109;28;999;-32
2023/05/17 08:10:38;;;;;;;;;;;;;;;25.07;31.62;100456.72;5077891;28;1201;-38
2023/05/17 08:13:04;;;;;;;;;;;;;;;25.06;31.60;100433.53;5075044;28;1241;-33
2023/05/17 08:15:30;;;;;;;;;;;;;;;25.04;31.71;100432.06;5067556;28;1043;-39
2023/05/17 08:17:56;;;;;;;;;;;;;;;25.11;32.23;100434.88;5075960;28;1085;-35
2023/05/17 08:20:21;;;;;;;;;;;;;;;25.16;31.93;100427.94;5058681;28;1083;-38
2023/05/17 08:22:47;;;;;;;;;;;;;;;25.30;31.74;100434.41;5071886;28;1202;-38
2023/05/17 08:25:12;;;;;;;;;;;;;;;25.26;31.96;100430.38;5067442;28;1963;-37
2023/05/17 08:27:38;;;;;;;;;;;;;;;25.25;31.39;100430.56;5060554;28;1150;-37
2023/05/17 08:30:04;;;;;;;;;;;;;;;25.55;31.02;100428.84;5076983;28;1411;-37
2023/05/17 08:32:29;;;;;;;;;;;;;;;25.37;30.29;100433.69;5062077;28;1186;-38
2023/05/17 08:34:56;;;;;;;;;;;;;;;25.23;30.58;100427.22;5071038;28;1241;-37
2023/05/17 08:37:21;;;;;;;;;;;;;;;25.24;30.42;100428.91;5069915;28;888;-37
2023/05/17 08:39:48;;;;;;;;;;;;;;;25.19;30.35;100432.94;5059404;28;1333;-36
2023/05/17 08:42:14;;;;;;;;;;;;;;;25.17;30.37;100431.47;5077388;28;1305;-37
2023/05/17 08:44:39;;;;;;;;;;;;;;;25.17;30.24;100412.63;5046398;28;1981;-37
2023/05/17 08:47:06;;;;;;;;;;;;;;;25.09;30.39;100410.00;5056779;28;1060;-38
2023/05/17 08:49:32;;;;;;;;;;;;;;;25.12;30.51;100415.00;5058015;28;1301;-36
2023/05/17 08:51:58;;;;;;;;;;;;;;;25.15;30.30;100417.34;5051482;28;1024;-37
2023/05/17 08:54:24;;;;;;;;;;;;;;;25.05;30.34;100415.72;5061877;28;1396;-36
2023/05/17 08:56:51;;;;;;;;;;;;;;;25.02;30.69;100409.84;5058004;28;1141;-37
2023/05/17 08:59:17;;;;;;;;;;;;;;;25.08;30.30;100419.91;5065762;28;1104;-37
2023/05/17 09:01:43;;;;;;;;;;;;;;;25.11;30.41;100411.47;5077085;28;1296;-37
2023/05/17 09:04:08;;;;;;;;;;;;;;;25.14;30.46;100418.38;5059466;28;1993;-37
2023/05/17 09:06:34;;;;;;;;;;;;;;;25.10;30.15;100417.88;5059991;28;1127;-37
2023/05/17 09:09:00;;;;;;;;;;;;;;;25.09;30.22;100416.19;5063403;28;1050;-36
2023/05/17 09:11:26;;;;;;;;;;;;;;;25.32;29.94;100415.38;5040244;28;1120;-37
2023/05/17 09:13:52;;;;;;;;;;;;;;;25.17;30.42;100412.63;5073505;28;1129;-37
2023/05/17 09:16:20;;;;;;;;;;;;;;;25.16;30.39;100409.09;5077621;28;1107;-37
2023/05/17 09:18:52;;;;;;;;;;;;;;;25.19;30.38;100406.03;5077627;28;1237;-37
2023/05/17 09:21:17;;;;;;;;;;;;;;;25.69;29.63;100399.47;5059856;28;1147;-36
2023/05/17 09:23:43;;;;;;;;;;;;;;;25.73;29.33;100398.09;5076998;28;1078;-37
2023/05/17 09:26:08;;;;;;;;;;;;;;;25.82;29.13;100406.94;5055529;28;1902;-35
2023/05/17 09:28:38;;;;;;;;;;;;;;;25.90;28.96;100406.88;5073164;28;1240;-35
2023/05/17 09:31:07;;;;;;;;;;;;;;;25.85;29.16;100403.03;5061614;28;1075;-32
2023/05/17 09:33:33;;;;;;;;;;;;;;;25.49;29.73;100402.63;5077423;28;1105;-38
2023/05/17 09:35:59;;;;;;;;;;;;;;;25.41;30.40;100402.69;5058150;28;1127;-38
2023/05/17 09:38:26;;;;;;;;;;;;;;;25.58;30.94;100414.19;5072989;28;852;-36
2023/05/17 09:40:51;;;;;;;;;;;;;;;26.22;29.35;100420.19;5040427;28;1051;-33
2023/05/17 09:43:21;;;;;;;;;;;;;;;26.03;29.92;100416.16;5053645;28;1446;-38
2023/05/17 09:45:53;;;;;;;;;;;;;;;25.80;30.77;100411.66;5066496;28;1926;-37
2023/05/17 09:48:21;;;;;;;;;;;;;;;25.96;30.82;100413.38;5076489;28;1355;-34
2023/05/17 09:50:47;;;;;;;;;;;;;;;25.86;30.80;100418.19;5076793;28;1086;-38
2023/05/17 09:53:23;;;;;;;;;;;;;;;26.25;30.32;100419.81;5076622;28;1482;-36
2023/05/17 09:55:49;;;;;;;;;;;;;;;26.54;29.79;100422.75;5077098;28;1261;-34
2023/05/17 09:58:14;;;;;;;;;;;;;;;26.52;29.69;100417.53;5057616;28;1262;-38
2023/05/17 10:00:41;;;;;;;;;;;;;;;26.57;29.47;100413.41;5056608;28;1316;-37
2023/05/17 10:03:06;;;;;;;;;;;;;;;26.78;29.32;100407.25;5058453;28;1277;-36
2023/05/17 10:05:32;;;;;;;;;;;;;;;26.73;29.73;100396.19;5057835;28;1902;-36
2023/05/17 10:07:57;;;;;;;;;;;;;;;26.40;29.84;100395.59;5058054;28;1313;-38
2023/05/17 10:10:23;;;;;;;;;;;;;;;26.13;30.63;100386.25;5075985;28;1411;-36
2023/05/17 10:12:49;;;;;;;;;;;;;;;26.06;31.07;100386.13;5075102;28;1427;-36
2023/05/17 10:15:16;;;;;;;;;;;;;;;26.20;31.12;100381.78;5075887;28;1035;-36
2023/05/17 10:17:41;;;;;;;;;;;;;;;26.09;31.19;100382.25;5075043;28;1138;-35
2023/05/17 10:20:07;;;;;;;;;;;;;;;26.32;30.67;100386.72;5047223;28;1004;-37
2023/05/17 10:22:33;;;;;;;;;;;;;;;26.64;30.80;100384.69;5072311;28;1168;-36
2023/05/17 10:24:59;;;;;;;;;;;;;;;26.41;30.63;100378.38;5075003;28;1909;-35
2023/05/17 10:27:25;;;;;;;;;;;;;;;26.19;30.86;100381.97;5058692;28;1204;-34
2023/05/17 10:29:51;;;;;;;;;;;;;;;26.17;30.93;100376.78;5058827;28;1465;-36
2023/05/17 10:32:16;;;;;;;;;;;;;;;26.06;31.17;100369.16;5076309;28;1367;-37
2023/05/17 10:34:42;;;;;;;;;;;;;;;26.06;30.96;100378.06;5060815;28;1031;-37
2023/05/17 10:37:07;;;;;;;;;;;;;;;25.75;31.97;100363.72;5062594;28;1119;-37
2023/05/17 10:39:33;;;;;;;;;;;;;;;25.59;32.16;100361.16;5057500;28;1071;-35
2023/05/17 10:42:00;;;;;;;;;;;;;;;25.52;32.56;100351.13;5075897;28;1121;-33
2023/05/17 10:44:25;;;;;;;;;;;;;;;25.61;32.29;100357.25;5057148;28;1969;-37
2023/05/17 10:46:56;;;;;;;;;;;;;;;25.55;32.72;100356.13;5049563;28;1293;-36
2023/05/17 10:49:25;;;;;;;;;;;;;;;25.56;32.69;100365.88;5070984;28;1079;-35
2023/05/17 10:51:51;;;;;;;;;;;;;;;25.56;32.63;100362.34;5066649;28;1105;-38
2023/05/17 10:54:19;;;;;;;;;;;;;;;25.56;32.65;100360.50;5056177;28;1147;-38
2023/05/17 10:56:49;;;;;;;;;;;;;;;25.50;32.49;100365.75;5072695;28;1444;-35
2023/05/17 10:59:20;;;;;;;;;;;;;;;25.58;32.46;100368.38;5065814;28;1224;-37
2023/05/17 11:02:04;;;;;;;;;;;;;;;25.58;32.64;100368.38;5073784;28;1051;-36
2023/05/17 11:04:33;;;;;;;;;;;;;;;25.53;32.60;100370.78;5075235;28;1905;-35
2023/05/17 11:07:23;;;;;;;;;;;;;;;25.51;32.37;100380.91;5062735;28;1122;-33
2023/05/17 11:09:55;;;;;;;;;;;;;;;25.61;32.43;100378.78;5055836;28;1656;-37
2023/05/17 11:12:27;;;;;;;;;;;;;;;25.54;32.77;100378.69;5075545;28;1114;-37
2023/05/17 11:14:53;;;;;;;;;;;;;;;25.60;32.66;100382.50;5053748;28;1130;-36
2023/05/17 11:17:33;;;;;;;;;;;;;;;25.64;32.21;100377.63;5066667;28;1264;-36
2023/05/17 11:20:06;;;;;;;;;;;;;;;25.60;32.68;100379.81;5070390;28;1051;-37
2023/05/17 11:22:36;;;;;;;;;;;;;;;25.51;32.69;100370.13;5055588;28;1126;-37
2023/05/17 11:25:04;;;;;;;;;;;;;;;25.56;32.41;100371.25;5055320;28;1971;-37
2023/05/17 11:27:32;;;;;;;;;;;;;;;25.55;32.58;100366.06;5069052;28;895;-36
2023/05/17 11:29:59;;;;;;;;;;;;;;;25.64;32.48;100362.28;5046181;28;1047;-36
2023/05/17 11:32:27;;;;;;;;;;;;;;;25.55;32.34;100366.06;5044677;28;1104;-34
2023/05/17 11:34:53;;;;;;;;;;;;;;;25.81;32.07;100359.44;5073265;28;1265;-37
2023/05/17 11:37:26;;;;;;;;;;;;;;;25.58;32.82;100356.75;5057913;28;1114;-38
2023/05/17 11:40:03;;;;;;;;;;;;;;;25.55;32.74;100352.59;5058081;28;1051;-36
2023/05/17 11:42:28;;;;;;;;;;;;;;;25.59;32.85;100351.19;5065287;28;1121;-32
2023/05/17 11:44:55;;;;;;;;;;;;;;;25.61;32.71;100346.47;5068535;28;1974;-37
2023/05/17 11:47:21;;;;;;;;;;;;;;;25.55;32.94;100344.50;5066444;28;1158;-37
2023/05/17 11:49:46;;;;;;;;;;;;;;;25.59;32.89;100342.31;5060898;28;1230;-38
2023/05/17 11:52:12;;;;;;;;;;;;;;;25.97;32.03;100331.50;5056084;28;1202;-35
2023/05/17 11:54:38;;;;;;;;;;;;;;;26.12;31.98;100325.28;5053807;28;1481;-35
2023/05/17 11:57:03;;;;;;;;;;;;;;;26.06;32.33;100321.44;5042682;28;1466;-36
2023/05/17 11:59:29;;;;;;;;;;;;;;;26.06;31.81;100316.06;5041430;28;1039;-34
2023/05/17 12:01:55;;;;;;;;;;;;;;;25.94;32.35;100321.09;5056632;28;1202;-38
2023/05/17 12:04:24;;;;;;;;;;;;;;;25.88;32.54;100317.28;5066791;28;1926;-34
2023/05/17 12:06:50;;;;;;;;;;;;;;;25.83;32.18;100314.31;5078027;28;1060;-38
2023/05/17 12:09:16;;;;;;;;;;;;;;;25.58;32.43;100319.06;5060401;28;2081;-38
2023/05/17 12:11:42;;;;;;;;;;;;;;;25.54;33.56;100322.13;5055312;28;1276;-37
2023/05/17 12:14:07;;;;;;;;;;;;;;;24.98;35.55;100323.25;5052426;28;1166;-38
2023/05/17 12:16:33;;;;;;;;;;;;;;;24.42;36.81;100319.66;5073844;28;1111;-37
2023/05/17 12:18:59;;;;;;;;;;;;;;;25.03;36.21;100320.03;5040867;28;1147;-38
2023/05/17 12:21:24;;;;;;;;;;;;;;;25.32;35.62;100321.16;5071752;28;1100;-37
2023/05/17 12:23:50;;;;;;;;;;;;;;;25.21;35.72;100318.91;5063720;28;969;-38
2023/05/17 12:26:16;;;;;;;;;;;;;;;24.59;37.45;100319.59;5076269;28;1980;-38
2023/05/17 12:28:43;;;;;;;;;;;;;;;24.17;38.38;100302.81;5071036;28;1136;-36
2023/05/17 12:31:10;;;;;;;;;;;;;;;23.65;39.67;100311.16;5071283;28;1249;-38
2023/05/17 12:33:36;;;;;;;;;;;;;;;24.37;38.41;100305.09;5048143;28;1083;-38
2023/05/17 12:36:02;;;;;;;;;;;;;;;24.47;37.88;100311.09;5067014;28;1266;-37
2023/05/17 12:38:31;;;;;;;;;;;;;;;24.06;39.26;100310.22;5062757;28;1179;-37
2023/05/17 12:40:58;;;;;;;;;;;;;;;23.96;39.05;100310.41;5069431;28;1020;-34
2023/05/17 12:43:23;;;;;;;;;;;;;;;24.42;38.14;100308.09;5068924;28;1079;-37